createdAt,value
2022-11-27T00:00:28.608Z,9.745425
2022-11-27T00:01:28.601Z,9.745468
2022-11-27T00:02:28.777Z,9.745542
2022-11-27T00:03:28.782Z,9.745515
2022-11-27T00:04:28.607Z,9.745579
2022-11-27T00:05:28.570Z,9.745558
2022-11-27T00:06:28.562Z,9.745398
2022-11-27T00:07:28.632Z,9.745654
2022-11-27T00:08:28.552Z,9.745614
2022-11-27T00:09:28.563Z,9.745678
2022-11-27T00:10:28.530Z,9.745568
2022-11-27T00:11:28.538Z,9.745499
2022-11-27T00:12:28.516Z,9.745584
2022-11-27T00:13:28.507Z,9.745661
2022-11-27T00:14:28.526Z,9.745402
2022-11-27T00:15:28.493Z,9.745470
2022-11-27T00:16:28.607Z,9.745482
2022-11-27T00:17:28.475Z,9.745520
2022-11-27T00:18:28.466Z,9.745588
2022-11-27T00:19:28.458Z,9.745508
2022-11-27T00:20:29.781Z,9.745532
2022-11-27T00:21:29.444Z,9.745610
2022-11-27T00:22:28.443Z,9.745584
2022-11-27T00:23:28.430Z,9.745462
2022-11-27T00:24:28.425Z,9.745339
2022-11-27T00:25:28.437Z,9.745508
2022-11-27T00:26:31.896Z,9.745489
2022-11-27T00:27:29.395Z,9.745468
2022-11-27T00:28:28.384Z,9.745295
2022-11-27T00:29:28.381Z,9.745326
2022-11-27T00:30:28.397Z,9.745358
2022-11-27T00:31:28.470Z,9.745365
2022-11-27T00:32:28.355Z,9.745380
2022-11-27T00:33:28.348Z,9.745502
2022-11-27T00:34:28.341Z,9.745440
2022-11-27T00:35:28.354Z,9.745446
2022-11-27T00:36:28.324Z,9.745527
2022-11-27T00:37:28.319Z,9.745552
2022-11-27T00:38:28.302Z,9.745556
2022-11-27T00:39:28.301Z,9.745479
2022-11-27T00:40:28.315Z,9.745421
2022-11-27T00:41:28.285Z,9.745168
2022-11-27T00:42:28.273Z,9.745367
2022-11-27T00:43:28.268Z,9.745261
2022-11-27T00:44:28.259Z,9.745381
2022-11-27T00:45:28.276Z,9.745401
2022-11-27T00:46:29.207Z,9.745545
2022-11-27T00:47:29.236Z,9.745582
2022-11-27T00:48:28.228Z,9.745551
2022-11-27T00:49:28.219Z,9.745392
2022-11-27T00:50:28.242Z,9.745359
2022-11-27T00:51:28.206Z,9.745480
2022-11-27T00:52:28.191Z,9.745573
2022-11-27T00:53:28.192Z,9.745685
2022-11-27T00:54:28.181Z,9.745466
2022-11-27T00:55:28.199Z,9.745471
2022-11-27T00:56:28.167Z,9.745566
2022-11-27T00:57:28.157Z,9.745373
2022-11-27T00:58:28.149Z,9.745250
2022-11-27T00:59:28.141Z,9.745617
2022-11-27T01:00:28.161Z,9.745436
2022-11-27T01:01:28.194Z,9.745219
2022-11-27T01:02:28.148Z,9.745388
2022-11-27T01:03:29.110Z,9.745564
2022-11-27T01:04:28.108Z,9.745593
2022-11-27T01:05:28.124Z,9.745503
2022-11-27T01:06:28.088Z,9.745425
2022-11-27T01:07:28.127Z,9.745492
2022-11-27T01:08:28.070Z,9.745592
2022-11-27T01:09:28.061Z,9.745539
2022-11-27T01:10:28.056Z,9.745541
2022-11-27T01:11:28.049Z,9.745559
2022-11-27T01:12:29.109Z,9.745603
2022-11-27T01:13:28.032Z,9.745566
2022-11-27T01:14:28.024Z,9.745576
2022-11-27T01:15:28.016Z,9.745501
2022-11-27T01:16:28.061Z,9.745564
2022-11-27T01:17:28.025Z,9.745537
2022-11-27T01:18:27.991Z,9.745629
2022-11-27T01:19:28.062Z,9.745552
2022-11-27T01:20:27.977Z,9.745435
2022-11-27T01:21:27.970Z,9.745514
2022-11-27T01:22:27.989Z,9.745432
2022-11-27T01:23:27.954Z,9.745385
2022-11-27T01:24:27.949Z,9.745348
2022-11-27T01:25:27.942Z,9.745286
2022-11-27T01:26:27.946Z,9.745614
2022-11-27T01:27:27.945Z,9.745667
2022-11-27T01:28:27.922Z,9.745393
2022-11-27T01:29:27.908Z,9.745591
2022-11-27T01:30:27.916Z,9.745515
2022-11-27T01:31:27.980Z,9.745606
2022-11-27T01:32:27.911Z,9.745655
2022-11-27T01:33:27.877Z,9.745564
2022-11-27T01:34:27.871Z,9.745452
2022-11-27T01:35:27.866Z,9.745519
2022-11-27T01:36:27.856Z,9.745475
2022-11-27T01:37:27.869Z,9.745518
2022-11-27T01:38:27.843Z,9.745398
2022-11-27T01:39:27.832Z,9.745525
2022-11-27T01:40:27.823Z,9.745475
2022-11-27T01:41:27.819Z,9.745498
2022-11-27T01:42:27.837Z,9.745442
2022-11-27T01:43:27.803Z,9.745626
2022-11-27T01:44:27.794Z,9.745760
2022-11-27T01:45:27.783Z,9.745230
2022-11-27T01:46:27.807Z,9.745409
2022-11-27T01:47:27.794Z,9.745524
2022-11-27T01:48:27.761Z,9.745419
2022-11-27T01:49:27.755Z,9.745234
2022-11-27T01:50:27.742Z,9.745319
2022-11-27T01:51:27.737Z,9.745449
2022-11-27T01:52:27.750Z,9.745314
2022-11-27T01:53:27.717Z,9.745330
2022-11-27T01:54:27.710Z,9.745408
2022-11-27T01:55:27.706Z,9.745521
2022-11-27T01:56:27.693Z,9.745659
2022-11-27T01:57:27.713Z,9.745139
2022-11-27T01:58:27.688Z,9.745443
2022-11-27T01:59:27.672Z,9.745705
2022-11-27T02:00:27.664Z,9.744953
2022-11-27T02:01:27.690Z,9.745405
2022-11-27T02:02:27.703Z,9.745510
2022-11-27T02:03:27.691Z,9.745457
2022-11-27T02:04:27.633Z,9.745548
2022-11-27T02:05:27.622Z,9.745483
2022-11-27T02:06:27.617Z,9.745509
2022-11-27T02:07:27.693Z,9.745431
2022-11-27T02:08:27.629Z,9.745475
2022-11-27T02:09:27.605Z,9.745523
2022-11-27T02:10:27.587Z,9.745514
2022-11-27T02:11:27.591Z,9.745465
2022-11-27T02:12:27.576Z,9.745461
2022-11-27T02:13:27.593Z,9.745593
2022-11-27T02:14:27.562Z,9.745701
2022-11-27T02:15:27.552Z,9.745657
2022-11-27T02:16:27.609Z,9.745480
2022-11-27T02:17:27.536Z,9.745526
2022-11-27T02:18:27.550Z,9.745593
2022-11-27T02:19:27.521Z,9.745671
2022-11-27T02:20:27.510Z,9.745742
2022-11-27T02:21:27.510Z,9.745461
2022-11-27T02:22:27.496Z,9.745384
2022-11-27T02:23:27.514Z,9.745613
2022-11-27T02:24:27.481Z,9.745530
2022-11-27T02:25:28.577Z,9.744697
2022-11-27T02:26:28.472Z,9.745853
2022-11-27T02:27:27.458Z,9.745489
2022-11-27T02:28:27.475Z,9.745463
2022-11-27T02:29:27.444Z,9.745629
2022-11-27T02:30:27.428Z,9.745541
2022-11-27T02:31:27.465Z,9.745599
2022-11-27T02:32:27.419Z,9.745688
2022-11-27T02:33:27.439Z,9.745643
2022-11-27T02:34:27.400Z,9.745705
2022-11-27T02:35:27.395Z,9.745645
2022-11-27T02:36:27.387Z,9.745555
2022-11-27T02:37:27.379Z,9.745549
2022-11-27T02:38:27.397Z,9.745439
2022-11-27T02:39:27.363Z,9.745532
2022-11-27T02:40:27.352Z,9.745600
2022-11-27T02:41:27.345Z,9.745578
2022-11-27T02:42:27.408Z,9.745619
2022-11-27T02:43:27.366Z,9.745677
2022-11-27T02:44:27.323Z,9.745579
2022-11-27T02:45:27.312Z,9.745550
2022-11-27T02:46:28.402Z,9.745409
2022-11-27T02:47:27.299Z,9.745530
2022-11-27T02:48:27.290Z,9.745539
2022-11-27T02:49:27.304Z,9.745543
2022-11-27T02:50:27.279Z,9.745552
2022-11-27T02:51:27.264Z,9.745378
2022-11-27T02:52:27.261Z,9.745407
2022-11-27T02:53:27.275Z,9.745524
2022-11-27T02:54:27.248Z,9.745695
2022-11-27T02:55:27.236Z,9.745602
2022-11-27T02:56:27.228Z,9.745655
2022-11-27T02:57:27.222Z,9.745403
2022-11-27T02:58:27.290Z,9.745461
2022-11-27T02:59:27.225Z,9.745399
2022-11-27T03:00:27.196Z,9.745152
2022-11-27T03:01:27.259Z,9.745372
2022-11-27T03:02:27.255Z,9.745253
2022-11-27T03:03:27.180Z,9.745281
2022-11-27T03:04:27.188Z,9.745399
2022-11-27T03:05:27.156Z,9.745063
2022-11-27T03:06:27.148Z,9.745218
2022-11-27T03:07:27.159Z,9.745402
2022-11-27T03:08:27.127Z,9.745498
2022-11-27T03:09:27.146Z,9.744954
2022-11-27T03:10:27.116Z,9.745107
2022-11-27T03:11:27.106Z,9.745277
2022-11-27T03:12:27.099Z,9.745237
2022-11-27T03:13:27.090Z,9.745383
2022-11-27T03:14:27.175Z,9.745302
2022-11-27T03:15:27.076Z,9.745352
2022-11-27T03:16:27.144Z,9.745579
2022-11-27T03:17:27.058Z,9.745437
2022-11-27T03:18:27.051Z,9.745716
2022-11-27T03:19:27.064Z,9.745511
2022-11-27T03:20:27.042Z,9.745440
2022-11-27T03:21:27.020Z,9.745328
2022-11-27T03:22:27.013Z,9.745375
2022-11-27T03:23:27.004Z,9.745766
2022-11-27T03:24:27.021Z,9.746089
2022-11-27T03:25:26.990Z,9.745854
2022-11-27T03:26:26.981Z,9.745594
2022-11-27T03:27:26.970Z,9.745616
2022-11-27T03:28:26.966Z,9.745520
2022-11-27T03:29:26.987Z,9.745426
2022-11-27T03:30:27.027Z,9.745448
2022-11-27T03:31:27.045Z,9.744731
2022-11-27T03:32:26.934Z,9.745100
2022-11-27T03:33:26.927Z,9.745224
2022-11-27T03:34:26.948Z,9.745625
2022-11-27T03:35:26.910Z,9.745513
2022-11-27T03:36:26.906Z,9.745648
2022-11-27T03:37:26.894Z,9.745427
2022-11-27T03:38:26.888Z,9.745928
2022-11-27T03:39:26.917Z,9.745973
2022-11-27T03:40:26.868Z,9.745770
2022-11-27T03:41:26.858Z,9.745489
2022-11-27T03:42:26.854Z,9.745611
2022-11-27T03:43:26.847Z,9.745768
2022-11-27T03:44:26.838Z,9.745467
2022-11-27T03:45:26.854Z,9.745674
2022-11-27T03:46:26.935Z,9.745837
2022-11-27T03:47:26.888Z,9.745440
2022-11-27T03:48:26.797Z,9.745302
2022-11-27T03:49:26.796Z,9.745544
2022-11-27T03:50:26.817Z,9.745417
2022-11-27T03:51:26.779Z,9.745861
2022-11-27T03:52:26.772Z,9.745706
2022-11-27T03:53:26.766Z,9.746104
2022-11-27T03:54:26.755Z,9.745964
2022-11-27T03:55:26.774Z,9.745945
2022-11-27T03:56:26.742Z,9.745440
2022-11-27T03:57:26.730Z,9.745434
2022-11-27T03:58:26.728Z,9.745709
2022-11-27T03:59:26.716Z,9.745834
2022-11-27T04:00:26.733Z,9.745910
2022-11-27T04:01:26.730Z,9.746081
2022-11-27T04:02:26.768Z,9.747755
2022-11-27T04:03:26.737Z,9.747957
2022-11-27T04:04:26.680Z,9.745843
2022-11-27T04:05:26.697Z,9.745698
2022-11-27T04:06:26.666Z,9.745698
2022-11-27T04:07:26.658Z,9.745545
2022-11-27T04:08:26.646Z,9.745494
2022-11-27T04:09:26.636Z,9.744864
2022-11-27T04:10:26.653Z,9.744864
2022-11-27T04:11:26.623Z,9.744864
2022-11-27T04:12:26.612Z,9.744864
2022-11-27T04:13:26.607Z,9.744864
2022-11-27T04:14:26.602Z,9.744864
2022-11-27T04:15:26.614Z,9.744864
2022-11-27T04:16:26.608Z,9.744864
2022-11-27T04:17:26.580Z,9.745653
2022-11-27T04:18:26.646Z,9.745401
2022-11-27T04:19:26.560Z,9.745368
2022-11-27T04:20:26.579Z,9.745590
2022-11-27T04:21:26.546Z,9.745707
2022-11-27T04:22:26.540Z,9.745897
2022-11-27T04:23:26.533Z,9.745766
2022-11-27T04:24:26.520Z,9.745341
2022-11-27T04:25:26.539Z,9.745554
2022-11-27T04:26:26.502Z,9.745612
2022-11-27T04:27:26.493Z,9.745996
2022-11-27T04:28:26.489Z,9.745819
2022-11-27T04:29:26.478Z,9.746006
2022-11-27T04:30:26.505Z,9.746183
2022-11-27T04:31:26.523Z,9.745919
2022-11-27T04:32:26.453Z,9.745720
2022-11-27T04:33:26.443Z,9.745666
2022-11-27T04:34:26.527Z,9.745582
2022-11-27T04:35:26.459Z,9.745175
2022-11-27T04:36:26.424Z,9.745222
2022-11-27T04:37:26.412Z,9.745372
2022-11-27T04:38:26.407Z,9.745858
2022-11-27T04:39:26.402Z,9.745895
2022-11-27T04:40:26.389Z,9.745973
2022-11-27T04:41:26.393Z,9.746006
2022-11-27T04:42:27.376Z,9.745943
2022-11-27T04:43:26.370Z,9.745661
2022-11-27T04:44:26.358Z,9.745639
2022-11-27T04:45:26.351Z,9.745617
2022-11-27T04:46:26.444Z,9.745438
2022-11-27T04:47:26.334Z,9.745336
2022-11-27T04:48:26.324Z,9.745552
2022-11-27T04:49:26.319Z,9.745345
2022-11-27T04:50:26.383Z,9.745432
2022-11-27T04:51:26.327Z,9.745369
2022-11-27T04:52:26.295Z,9.744984
2022-11-27T04:53:26.285Z,9.745426
2022-11-27T04:54:26.284Z,9.745942
2022-11-27T04:55:26.268Z,9.745796
2022-11-27T04:56:26.287Z,9.745464
2022-11-27T04:57:26.250Z,9.745679
2022-11-27T04:58:26.252Z,9.745506
2022-11-27T04:59:26.243Z,9.745378
2022-11-27T05:00:26.292Z,9.745355
2022-11-27T05:01:26.283Z,9.745432
2022-11-27T05:02:26.282Z,9.745458
2022-11-27T05:03:26.209Z,9.745250
2022-11-27T05:04:26.206Z,9.745529
2022-11-27T05:05:26.191Z,9.745371
2022-11-27T05:06:26.284Z,9.745588
2022-11-27T05:07:26.242Z,9.745428
2022-11-27T05:08:26.176Z,9.745819
2022-11-27T05:09:26.152Z,9.745692
2022-11-27T05:10:27.156Z,9.745665
2022-11-27T05:11:26.172Z,9.745547
2022-11-27T05:12:26.137Z,9.745522
2022-11-27T05:13:26.142Z,9.745600
2022-11-27T05:14:26.125Z,9.745088
2022-11-27T05:15:26.121Z,9.745385
2022-11-27T05:16:26.181Z,9.745167
2022-11-27T05:17:26.099Z,9.745642
2022-11-27T05:18:26.109Z,9.745368
2022-11-27T05:19:26.090Z,9.745466
2022-11-27T05:20:26.077Z,9.745750
2022-11-27T05:21:26.094Z,9.746067
2022-11-27T05:22:26.135Z,9.745624
2022-11-27T05:23:26.057Z,9.745459
2022-11-27T05:24:26.050Z,9.745422
2022-11-27T05:25:26.040Z,9.745450
2022-11-27T05:26:26.058Z,9.745458
2022-11-27T05:27:26.021Z,9.745214
2022-11-27T05:28:26.981Z,9.745335
2022-11-27T05:29:27.006Z,9.745401
2022-11-27T05:30:25.998Z,9.745395
2022-11-27T05:31:26.074Z,9.745402
2022-11-27T05:32:25.984Z,9.745424
2022-11-27T05:33:25.995Z,9.745627
2022-11-27T05:34:25.966Z,9.745740
2022-11-27T05:35:25.959Z,9.745556
2022-11-27T05:36:25.979Z,9.745331
2022-11-27T05:37:25.943Z,9.745171
2022-11-27T05:38:26.014Z,9.745330
2022-11-27T05:39:25.926Z,9.745343
2022-11-27T05:40:25.924Z,9.745362
2022-11-27T05:41:25.935Z,9.745296
2022-11-27T05:42:25.906Z,9.745212
2022-11-27T05:43:25.900Z,9.745074
2022-11-27T05:44:25.903Z,9.745147
2022-11-27T05:45:25.884Z,9.745292
2022-11-27T05:46:25.945Z,9.745380
2022-11-27T05:47:25.869Z,9.745264
2022-11-27T05:48:25.862Z,9.745181
2022-11-27T05:49:25.853Z,9.745491
2022-11-27T05:50:25.845Z,9.745362
2022-11-27T05:51:25.859Z,9.745336
2022-11-27T05:52:25.831Z,9.745507
2022-11-27T05:53:25.820Z,9.745349
2022-11-27T05:54:25.894Z,9.745273
2022-11-27T05:55:25.802Z,9.745286
2022-11-27T05:56:25.833Z,9.745126
2022-11-27T05:57:25.789Z,9.744731
2022-11-27T05:58:25.781Z,9.745317
2022-11-27T05:59:25.775Z,9.744969
2022-11-27T06:00:25.769Z,9.745073
2022-11-27T06:01:25.787Z,9.745146
2022-11-27T06:02:29.408Z,9.746441
2022-11-27T06:03:26.843Z,9.746026
2022-11-27T06:04:25.734Z,9.745900
2022-11-27T06:05:25.728Z,9.744943
2022-11-27T06:06:25.719Z,9.746161
2022-11-27T06:07:25.813Z,9.745872
2022-11-27T06:08:25.697Z,9.745641
2022-11-27T06:09:25.694Z,9.745333
2022-11-27T06:10:25.762Z,9.745047
2022-11-27T06:11:25.677Z,9.744947
2022-11-27T06:12:25.696Z,9.744930
2022-11-27T06:13:25.659Z,9.745088
2022-11-27T06:14:25.653Z,9.745189
2022-11-27T06:15:25.640Z,9.745431
2022-11-27T06:16:25.688Z,9.745570
2022-11-27T06:17:25.655Z,9.745846
2022-11-27T06:18:25.626Z,9.746282
2022-11-27T06:19:25.614Z,9.745800
2022-11-27T06:20:25.613Z,9.745569
2022-11-27T06:21:25.600Z,9.745807
2022-11-27T06:22:25.610Z,9.745937
2022-11-27T06:23:25.582Z,9.745605
2022-11-27T06:24:25.573Z,9.745757
2022-11-27T06:25:25.567Z,9.745079
2022-11-27T06:26:25.624Z,9.745694
2022-11-27T06:27:25.579Z,9.745560
2022-11-27T06:28:25.544Z,9.745805
2022-11-27T06:29:25.530Z,9.745735
2022-11-27T06:30:25.526Z,9.745592
2022-11-27T06:31:25.584Z,9.745744
2022-11-27T06:32:25.540Z,9.746085
2022-11-27T06:33:25.502Z,9.745664
2022-11-27T06:34:25.492Z,9.745515
2022-11-27T06:35:25.495Z,9.745448
2022-11-27T06:36:25.477Z,9.745523
2022-11-27T06:37:25.506Z,9.745974
2022-11-27T06:38:25.465Z,9.745767
2022-11-27T06:39:25.454Z,9.745533
2022-11-27T06:40:25.449Z,9.745664
2022-11-27T06:41:25.439Z,9.745753
2022-11-27T06:42:25.530Z,9.745562
2022-11-27T06:43:25.420Z,9.745128
2022-11-27T06:44:25.412Z,9.745424
2022-11-27T06:45:25.430Z,9.745409
2022-11-27T06:46:25.397Z,9.745018
2022-11-27T06:47:25.414Z,9.745140
2022-11-27T06:48:25.386Z,9.746525
2022-11-27T06:49:25.376Z,9.745564
2022-11-27T06:50:25.365Z,9.745232
2022-11-27T06:51:25.359Z,9.745324
2022-11-27T06:52:25.382Z,9.745304
2022-11-27T06:53:25.340Z,9.745286
2022-11-27T06:54:25.330Z,9.745313
2022-11-27T06:55:25.328Z,9.745318
2022-11-27T06:56:25.318Z,9.745406
2022-11-27T06:57:25.309Z,9.745387
2022-11-27T06:58:30.857Z,9.746241
2022-11-27T06:59:27.299Z,9.745792
2022-11-27T07:00:25.285Z,9.745053
2022-11-27T07:01:25.424Z,9.745097
2022-11-27T07:02:25.333Z,9.745173
2022-11-27T07:03:25.291Z,9.745330
2022-11-27T07:04:25.257Z,9.745485
2022-11-27T07:05:25.250Z,9.745522
2022-11-27T07:06:25.242Z,9.745439
2022-11-27T07:07:25.366Z,9.745384
2022-11-27T07:08:25.250Z,9.745223
2022-11-27T07:09:25.213Z,9.745379
2022-11-27T07:10:25.212Z,9.745636
2022-11-27T07:11:25.204Z,9.745850
2022-11-27T07:12:25.185Z,9.745673
2022-11-27T07:13:26.215Z,9.745556
2022-11-27T07:14:25.252Z,9.745556
2022-11-27T07:15:25.169Z,9.745556
2022-11-27T07:16:25.184Z,9.745322
2022-11-27T07:17:25.156Z,9.745322
2022-11-27T07:18:25.169Z,9.745322
2022-11-27T07:19:25.139Z,9.745322
2022-11-27T07:20:25.136Z,9.745322
2022-11-27T07:21:25.126Z,9.745860
2022-11-27T07:22:25.118Z,9.745909
2022-11-27T07:23:25.139Z,9.745889
2022-11-27T07:24:25.104Z,9.745889
2022-11-27T07:25:25.101Z,9.745889
2022-11-27T07:26:25.087Z,9.745889
2022-11-27T07:27:25.082Z,9.745889
2022-11-27T07:28:25.096Z,9.745889
2022-11-27T07:29:25.070Z,9.745889
2022-11-27T07:30:25.132Z,9.745889
2022-11-27T07:31:25.087Z,9.745889
2022-11-27T07:32:25.043Z,9.745889
2022-11-27T07:33:25.061Z,9.745889
2022-11-27T07:34:25.028Z,9.745889
2022-11-27T07:35:25.019Z,9.746054
2022-11-27T07:36:25.018Z,9.745642
2022-11-27T07:37:25.004Z,9.745642
2022-11-27T07:38:25.021Z,9.745642
2022-11-27T07:39:46.336Z,9.745958
2022-11-27T07:40:27.040Z,9.745522
2022-11-27T07:41:29.135Z,9.745512
2022-11-27T07:42:41.415Z,9.747125
2022-11-27T07:43:26.985Z,9.746119
2022-11-27T07:44:24.954Z,9.746109
2022-11-27T07:45:25.020Z,9.746220
2022-11-27T07:46:25.012Z,9.745863
2022-11-27T07:47:24.934Z,9.745657
2022-11-27T07:48:24.943Z,9.744918
2022-11-27T07:49:24.910Z,9.745772
2022-11-27T07:50:24.904Z,9.745612
2022-11-27T07:51:24.894Z,9.745345
2022-11-27T07:52:24.885Z,9.745462
2022-11-27T07:53:24.913Z,9.745490
2022-11-27T07:54:24.872Z,9.745415
2022-11-27T07:55:24.868Z,9.745628
2022-11-27T07:56:24.857Z,9.746275
2022-11-27T07:57:24.848Z,9.745955
2022-11-27T07:58:24.872Z,9.745485
2022-11-27T07:59:24.833Z,9.745379
2022-11-27T08:00:24.826Z,9.745469
2022-11-27T08:01:24.887Z,9.745221
2022-11-27T08:02:24.883Z,9.745439
2022-11-27T08:03:24.798Z,9.745667
2022-11-27T08:04:24.841Z,9.745610
2022-11-27T08:05:24.858Z,9.745729
2022-11-27T08:06:24.778Z,9.745617
2022-11-27T08:07:24.825Z,9.745903
2022-11-27T08:08:24.765Z,9.745685
2022-11-27T08:09:24.784Z,9.745623
2022-11-27T08:10:24.747Z,9.745510
2022-11-27T08:11:24.755Z,9.745957
2022-11-27T08:12:25.730Z,9.746673
2022-11-27T08:13:24.723Z,9.746108
2022-11-27T08:14:24.733Z,9.746045
2022-11-27T08:15:25.703Z,9.746038
2022-11-27T08:16:24.763Z,9.745963
2022-11-27T08:17:24.693Z,9.745912
2022-11-27T08:18:24.766Z,9.745620
2022-11-27T08:19:24.708Z,9.745342
2022-11-27T08:20:24.671Z,9.745415
2022-11-27T08:21:24.659Z,9.745430
2022-11-27T08:22:24.655Z,9.745579
2022-11-27T08:23:24.648Z,9.745634
2022-11-27T08:24:24.671Z,9.745599
2022-11-27T08:25:24.628Z,9.745480
2022-11-27T08:26:24.617Z,9.745499
2022-11-27T08:27:25.613Z,9.745786
2022-11-27T08:28:24.603Z,9.745595
2022-11-27T08:29:24.625Z,9.745487
2022-11-27T08:30:24.665Z,9.745479
2022-11-27T08:31:24.648Z,9.745503
2022-11-27T08:32:24.579Z,9.745548
2022-11-27T08:33:24.567Z,9.745513
2022-11-27T08:34:25.656Z,9.746345
2022-11-27T08:35:24.557Z,9.745706
2022-11-27T08:36:24.546Z,9.745547
2022-11-27T08:37:24.530Z,9.745558
2022-11-27T08:38:24.533Z,9.745269
2022-11-27T08:39:24.543Z,9.745242
2022-11-27T08:40:24.568Z,9.745353
2022-11-27T08:41:24.504Z,9.745291
2022-11-27T08:42:24.496Z,9.745358
2022-11-27T08:43:24.487Z,9.745607
2022-11-27T08:44:24.506Z,9.745492
2022-11-27T08:45:24.536Z,9.745475
2022-11-27T08:46:24.462Z,9.745441
2022-11-27T08:47:24.455Z,9.745449
2022-11-27T08:48:24.445Z,9.745346
2022-11-27T08:49:24.464Z,9.745378
2022-11-27T08:50:24.576Z,9.745750
2022-11-27T08:51:24.425Z,9.745731
2022-11-27T08:52:24.414Z,9.745539
2022-11-27T08:53:24.408Z,9.745744
2022-11-27T08:54:24.425Z,9.745459
2022-11-27T08:55:24.392Z,9.745420
2022-11-27T08:56:24.482Z,9.745640
2022-11-27T08:57:24.400Z,9.745498
2022-11-27T08:58:24.364Z,9.745644
2022-11-27T08:59:24.380Z,9.745618
2022-11-27T09:00:27.988Z,9.745684
2022-11-27T09:01:25.408Z,9.745473
2022-11-27T09:02:24.339Z,9.745518
2022-11-27T09:03:24.331Z,9.745955
2022-11-27T09:04:24.395Z,9.745832
2022-11-27T09:05:24.314Z,9.745738
2022-11-27T09:06:24.381Z,9.745702
2022-11-27T09:07:24.384Z,9.745830
2022-11-27T09:08:24.290Z,9.746151
2022-11-27T09:09:24.308Z,9.745964
2022-11-27T09:10:24.354Z,9.745593
2022-11-27T09:11:24.265Z,9.745719
2022-11-27T09:12:24.254Z,9.745996
2022-11-27T09:13:24.249Z,9.745706
2022-11-27T09:14:24.270Z,9.745563
2022-11-27T09:15:24.232Z,9.745642
2022-11-27T09:16:24.280Z,9.745525
2022-11-27T09:17:24.217Z,9.746072
2022-11-27T09:18:24.210Z,9.746364
2022-11-27T09:19:24.224Z,9.746621
2022-11-27T09:20:24.194Z,9.746187
2022-11-27T09:21:24.181Z,9.746168
2022-11-27T09:22:24.249Z,9.745947
2022-11-27T09:23:24.169Z,9.745997
2022-11-27T09:24:24.185Z,9.745799
2022-11-27T09:25:24.156Z,9.745900
2022-11-27T09:26:24.155Z,9.746202
2022-11-27T09:27:24.150Z,9.746196
2022-11-27T09:28:29.813Z,9.746111
2022-11-27T09:29:25.147Z,9.746111
2022-11-27T09:30:24.141Z,9.746111
2022-11-27T09:31:24.174Z,9.746111
2022-11-27T09:32:24.167Z,9.746111
2022-11-27T09:33:24.093Z,9.746111
2022-11-27T09:34:24.108Z,9.746111
2022-11-27T09:35:24.172Z,9.746111
2022-11-27T09:36:24.095Z,9.746111
2022-11-27T09:37:24.064Z,9.746111
2022-11-27T09:38:24.129Z,9.746111
2022-11-27T09:39:24.071Z,9.746111
2022-11-27T09:40:24.033Z,9.746111
2022-11-27T09:41:24.029Z,9.746111
2022-11-27T09:42:24.020Z,9.746111
2022-11-27T09:43:24.011Z,9.746111
2022-11-27T09:44:24.000Z,9.746111
2022-11-27T09:45:24.017Z,9.746111
2022-11-27T09:46:24.007Z,9.746111
2022-11-27T09:47:23.974Z,9.746111
2022-11-27T09:48:23.972Z,9.745890
2022-11-27T09:49:23.961Z,9.745890
2022-11-27T09:50:23.981Z,9.745890
2022-11-27T09:51:23.949Z,9.745638
2022-11-27T09:52:23.938Z,9.745638
2022-11-27T09:53:23.931Z,9.745638
2022-11-27T09:54:23.993Z,9.745638
2022-11-27T09:55:24.945Z,9.745638
2022-11-27T09:56:23.903Z,9.745638
2022-11-27T09:57:23.896Z,9.745638
2022-11-27T09:58:23.891Z,9.745173
2022-11-27T09:59:23.882Z,9.745064
2022-11-27T10:00:23.895Z,9.745067
2022-11-27T10:01:27.395Z,9.744837
2022-11-27T10:02:25.949Z,9.744776
2022-11-27T10:03:23.918Z,9.744776
2022-11-27T10:04:23.838Z,9.744776
2022-11-27T10:05:23.889Z,9.744776
2022-11-27T10:06:23.832Z,9.744776
2022-11-27T10:07:23.889Z,9.744776
2022-11-27T10:08:23.807Z,9.744776
2022-11-27T10:09:23.802Z,9.744776
2022-11-27T10:10:23.894Z,9.744776
2022-11-27T10:11:23.788Z,9.744776
2022-11-27T10:12:23.777Z,9.744776
2022-11-27T10:13:23.770Z,9.744776
2022-11-27T10:14:23.764Z,9.744776
2022-11-27T10:15:23.778Z,9.744643
2022-11-27T10:16:23.806Z,9.744539
2022-11-27T10:17:23.736Z,9.744539
2022-11-27T10:18:23.728Z,9.744405
2022-11-27T10:19:23.721Z,9.744465
2022-11-27T10:20:23.739Z,9.744367
2022-11-27T10:21:23.705Z,9.744912
2022-11-27T10:22:23.701Z,9.745096
2022-11-27T10:23:23.692Z,9.745096
2022-11-27T10:24:23.682Z,9.745096
2022-11-27T10:25:23.701Z,9.745096
2022-11-27T10:26:23.747Z,9.745096
2022-11-27T10:27:23.656Z,9.745096
2022-11-27T10:28:23.647Z,9.745096
2022-11-27T10:29:23.641Z,9.745096
2022-11-27T10:30:23.663Z,9.745096
2022-11-27T10:31:23.688Z,9.745096
2022-11-27T10:32:53.611Z,9.745096
2022-11-27T10:33:25.614Z,9.745096
2022-11-27T10:34:23.600Z,9.745096
2022-11-27T10:35:23.617Z,9.745096
2022-11-27T10:36:23.594Z,9.745096
2022-11-27T10:37:23.584Z,9.745096
2022-11-27T10:38:23.570Z,9.745096
2022-11-27T10:39:23.564Z,9.745096
2022-11-27T10:40:23.587Z,9.745096
2022-11-27T10:41:52.456Z,9.745096
2022-11-27T10:42:25.622Z,9.745096
2022-11-27T10:43:23.533Z,9.745096
2022-11-27T10:44:23.529Z,9.745096
2022-11-27T10:45:23.548Z,9.745096
2022-11-27T10:46:23.547Z,9.745096
2022-11-27T10:47:23.506Z,9.745096
2022-11-27T10:48:23.494Z,9.745480
2022-11-27T10:49:23.495Z,9.745237
2022-11-27T10:50:23.484Z,9.745237
2022-11-27T10:51:23.499Z,9.745237
2022-11-27T10:52:23.462Z,9.745746
2022-11-27T10:53:23.460Z,9.745335
2022-11-27T10:54:23.448Z,9.744945
2022-11-27T10:55:23.468Z,9.745248
2022-11-27T10:56:23.434Z,9.746177
2022-11-27T10:57:23.424Z,9.745822
2022-11-27T10:58:23.493Z,9.745683
2022-11-27T10:59:23.411Z,9.745340
2022-11-27T11:00:23.408Z,9.745247
2022-11-27T11:01:23.489Z,9.745332
2022-11-27T11:02:23.436Z,9.745317
2022-11-27T11:03:23.379Z,9.745946
2022-11-27T11:04:39.230Z,9.745274
2022-11-27T11:06:25.547Z,9.745459
2022-11-27T11:07:23.394Z,9.745613
2022-11-27T11:08:23.341Z,9.745055
2022-11-27T11:09:23.334Z,9.745027
2022-11-27T11:10:23.328Z,9.745570
2022-11-27T11:11:23.342Z,9.745980
2022-11-27T11:12:23.310Z,9.745471
2022-11-27T11:13:23.309Z,9.745338
2022-11-27T11:14:23.367Z,9.745376
2022-11-27T11:15:23.291Z,9.745514
2022-11-27T11:16:24.639Z,9.745725
2022-11-27T11:17:24.335Z,9.745796
2022-11-27T11:18:23.263Z,9.746672
2022-11-27T11:19:23.261Z,9.745963
2022-11-27T11:20:23.250Z,9.745816
2022-11-27T11:21:23.265Z,9.745711
2022-11-27T11:22:23.236Z,9.745777
2022-11-27T11:23:23.226Z,9.745904
2022-11-27T11:24:23.217Z,9.745933
2022-11-27T11:25:23.213Z,9.745873
2022-11-27T11:26:23.234Z,9.745684
2022-11-27T11:27:23.196Z,9.745644
2022-11-27T11:28:23.189Z,9.745461
2022-11-27T11:29:23.179Z,9.745496
2022-11-27T11:30:23.261Z,9.745413
2022-11-27T11:31:23.272Z,9.745401
2022-11-27T11:32:23.152Z,9.745584
2022-11-27T11:33:23.157Z,9.745602
2022-11-27T11:34:23.140Z,9.745481
2022-11-27T11:35:23.130Z,9.745403
2022-11-27T11:36:23.149Z,9.745623
2022-11-27T11:37:23.117Z,9.745677
2022-11-27T11:38:23.115Z,9.745590
2022-11-27T11:39:23.108Z,9.745393
2022-11-27T11:40:23.089Z,9.745537
2022-11-27T11:41:23.110Z,9.745419
2022-11-27T11:42:23.078Z,9.745388
2022-11-27T11:43:23.068Z,9.745515
2022-11-27T11:44:23.064Z,9.745503
2022-11-27T11:45:23.053Z,9.745490